Time;durP1;ratioP1;P1;durP2;ratioP2;P2;SDS_P1;SDS_P2;PMS_P1;PMS_P2;Temp;Humidity;BMP_temperature;BMP_pressure;BME280_temperature;BME280_humidity;BME280_pressure;Samples;Min_cycle;Max_cycle;Signal;HPM_P1;HPM_P2
2024/04/02 00:00:43;;;;;;;16.17;6.10;;;;;;;14.30;74.12;99420.50;5046604;28;20394;-79
2024/04/02 00:03:10;;;;;;;15.27;3.78;;;;;;;14.26;71.69;99423.72;5046989;28;20116;-79
2024/04/02 00:05:37;;;;;;;18.33;4.70;;;;;;;14.41;71.99;99438.28;5047889;28;20056;-79
2024/04/02 00:08:03;;;;;;;22.52;6.57;;;;;;;13.86;74.91;99405.47;5044525;28;20049;-80
2024/04/02 00:10:30;;;;;;;20.38;5.05;;;;;;;13.85;73.39;99377.03;5050706;28;20033;-79
2024/04/02 00:12:55;;;;;;;19.67;4.82;;;;;;;13.36;76.45;99386.03;5051393;28;20078;-79
2024/04/02 00:15:21;;;;;;;16.55;5.68;;;;;;;13.23;76.23;99424.69;5051002;28;20033;-78
2024/04/02 00:17:46;;;;;;;18.52;5.35;;;;;;;13.52;74.50;99419.09;5050394;28;20569;-78
2024/04/02 00:20:12;;;;;;;19.48;5.60;;;;;;;13.78;72.92;99397.91;5050501;28;20056;-78
2024/04/02 00:22:40;;;;;;;18.35;4.30;;;;;;;13.72;73.83;99429.19;5049085;28;20041;-78
2024/04/02 00:25:05;;;;;;;19.30;4.63;;;;;;;13.55;74.30;99420.50;5050682;28;20029;-79
2024/04/02 00:27:31;;;;;;;15.38;4.22;;;;;;;13.89;72.13;99404.94;5050145;28;20041;-79
2024/04/02 00:29:57;;;;;;;17.48;4.13;;;;;;;13.85;72.80;99417.25;5050295;28;20120;-79
2024/04/02 00:32:22;;;;;;;15.13;5.28;;;;;;;13.62;74.51;99415.72;5050359;28;20021;-79
2024/04/02 00:34:48;;;;;;;23.73;5.03;;;;;;;14.11;72.22;99414.75;5050502;28;20033;-79
2024/04/02 00:37:14;;;;;;;13.95;3.80;;;;;;;13.79;73.13;99431.66;5050413;28;20055;-79
2024/04/02 00:39:39;;;;;;;14.93;3.85;;;;;;;13.99;72.33;99421.09;5050439;28;20025;-79
2024/04/02 00:42:04;;;;;;;17.98;4.35;;;;;;;13.81;73.82;99413.47;5052227;28;20044;-79
2024/04/02 00:44:31;;;;;;;17.08;4.13;;;;;;;13.53;76.21;99407.34;5049997;28;20090;-78
2024/04/02 00:46:57;;;;;;;17.92;4.75;;;;;;;13.81;74.97;99425.00;5049657;28;20183;-80
2024/04/02 00:49:23;;;;;;;17.40;3.63;;;;;;;14.22;70.81;99419.09;5049490;28;20547;-79
2024/04/02 00:51:49;;;;;;;18.10;4.75;;;;;;;14.14;71.77;99411.53;5050157;28;20035;-79
2024/04/02 00:54:15;;;;;;;21.55;5.63;;;;;;;14.23;71.91;99405.44;5049902;28;20025;-79
2024/04/02 00:56:41;;;;;;;14.57;4.60;;;;;;;14.08;72.65;99416.09;5050023;28;20029;-79
2024/04/02 00:59:07;;;;;;;21.35;4.60;;;;;;;13.78;73.48;99393.34;5049492;28;20401;-79
2024/04/02 01:01:32;;;;;;;21.02;5.07;;;;;;;14.24;72.60;99416.97;5051696;28;20083;-79
2024/04/02 01:03:59;;;;;;;15.40;4.78;;;;;;;13.72;73.85;99399.72;5049606;28;20029;-78
2024/04/02 01:06:25;;;;;;;17.48;5.00;;;;;;;13.94;73.50;99402.31;5049527;28;20033;-79
2024/04/02 01:08:50;;;;;;;13.13;4.53;;;;;;;14.23;72.03;99388.56;5049942;28;20033;-79
2024/04/02 01:11:16;;;;;;;15.32;4.47;;;;;;;14.12;72.29;99385.00;5049689;28;20025;-79
2024/04/02 01:13:41;;;;;;;15.32;4.93;;;;;;;14.17;71.63;99378.88;5049457;28;20051;-79
2024/04/02 01:16:07;;;;;;;19.77;5.28;;;;;;;14.14;72.31;99400.81;5049662;28;20025;-79
2024/04/02 01:18:32;;;;;;;15.70;3.80;;;;;;;13.74;74.42;99397.59;5048165;28;20030;-79
2024/04/02 01:20:58;;;;;;;20.55;5.10;;;;;;;13.78;73.49;99387.19;5049796;28;20025;-79
2024/04/02 01:23:24;;;;;;;19.75;4.72;;;;;;;13.53;74.54;99353.78;5049167;28;20033;-79
2024/04/02 01:25:49;;;;;;;16.67;5.60;;;;;;;14.03;73.49;99400.75;5049795;28;20052;-79
2024/04/02 01:28:14;;;;;;;16.40;5.50;;;;;;;13.34;77.37;99381.97;5049637;28;20032;-79
2024/04/02 01:30:40;;;;;;;17.05;5.15;;;;;;;13.51;74.63;99347.84;5049045;28;20132;-79
2024/04/02 01:33:05;;;;;;;17.90;5.30;;;;;;;13.16;78.47;99386.63;5049506;28;20520;-79
2024/04/02 01:35:31;;;;;;;17.88;4.72;;;;;;;13.10;79.60;99376.91;5049233;28;20095;-79
2024/04/02 01:37:56;;;;;;;15.80;5.13;;;;;;;12.92;82.25;99379.94;5049064;28;20126;-79
2024/04/02 01:40:23;;;;;;;14.02;5.00;;;;;;;13.26;79.15;99370.66;5049068;28;20048;-79
2024/04/02 01:42:48;;;;;;;17.27;5.53;;;;;;;12.90;81.83;99376.69;5047685;28;20059;-79
2024/04/02 01:45:14;;;;;;;17.30;4.97;;;;;;;13.24;78.60;99375.44;5049336;28;20478;-78
2024/04/02 01:47:39;;;;;;;16.02;4.80;;;;;;;13.34;78.10;99385.47;5049241;28;20123;-78
2024/04/02 01:50:05;;;;;;;18.10;5.15;;;;;;;13.14;76.88;99372.66;5049090;28;20060;-79
2024/04/02 01:52:30;;;;;;;15.55;5.22;;;;;;;12.90;80.77;99387.41;5048928;28;20485;-79
2024/04/02 01:54:56;;;;;;;16.27;4.90;;;;;;;12.85;82.06;99378.25;5049180;28;20505;-79
2024/04/02 01:57:21;;;;;;;17.10;6.15;;;;;;;13.29;78.21;99373.88;5048827;28;20056;-78
2024/04/02 01:59:46;;;;;;;20.08;5.30;;;;;;;12.58;82.18;99353.31;5048716;28;20421;-79
2024/04/02 02:02:12;;;;;;;14.80;5.47;;;;;;;13.18;79.26;99373.78;5048986;28;20048;-79
2024/04/02 02:04:37;;;;;;;20.20;6.28;;;;;;;13.02;80.23;99372.00;5050774;28;20031;-79
2024/04/02 02:07:03;;;;;;;16.88;5.60;;;;;;;13.20;79.13;99382.38;5048404;28;20025;-79
2024/04/02 02:09:28;;;;;;;16.85;5.85;;;;;;;12.44;84.55;99372.41;5047753;28;20428;-78
2024/04/02 02:11:54;;;;;;;20.95;4.88;;;;;;;12.23;85.55;99379.34;5048672;28;20025;-79
2024/04/02 02:14:19;;;;;;;15.52;5.82;;;;;;;12.66;82.62;99384.97;5049363;28;20041;-79
2024/04/02 02:16:44;;;;;;;15.40;5.38;;;;;;;12.14;85.03;99390.72;5047380;28;20029;-79
2024/04/02 02:19:10;;;;;;;18.95;5.40;;;;;;;12.43;81.78;99349.41;5048809;28;20035;-79
2024/04/02 02:21:36;;;;;;;34.20;7.43;;;;;;;11.99;88.07;99410.81;5050352;28;20025;-79
2024/04/02 02:24:02;;;;;;;16.25;5.70;;;;;;;12.38;84.43;99386.78;5048584;28;20628;-80
2024/04/02 02:26:27;;;;;;;17.67;5.00;;;;;;;12.68;83.64;99390.09;5048547;28;20048;-79
2024/04/02 02:28:52;;;;;;;22.45;5.70;;;;;;;12.04;87.35;99375.34;5047209;28;20536;-79
2024/04/02 02:31:18;;;;;;;15.68;5.50;;;;;;;11.49;89.84;99392.06;5051573;28;20045;-79
2024/04/02 02:33:46;;;;;;;15.77;4.65;;;;;;;10.97;92.13;99385.00;5071722;28;20066;-79
2024/04/02 02:36:11;;;;;;;;;;;;;;;10.99;92.76;99385.56;5078806;28;20052;-78
2024/04/02 02:38:37;;;;;;;12.98;4.40;;;;;;;10.25;98.86;99359.53;5065527;28;19935;-79
2024/04/02 02:41:02;;;;;;;16.77;5.68;;;;;;;10.33;100.00;99380.53;5057897;28;20032;-79
2024/04/02 02:43:28;;;;;;;15.93;5.75;;;;;;;10.84;100.00;99357.56;5059873;28;20055;-80
2024/04/02 02:45:53;;;;;;;19.33;5.88;;;;;;;10.75;100.00;99372.31;5062513;28;20056;-79
2024/04/02 02:48:19;;;;;;;16.13;6.63;;;;;;;11.26;99.72;99385.81;5057131;28;20025;-79
2024/04/02 02:50:45;;;;;;;20.98;7.35;;;;;;;11.58;95.46;99372.72;5057518;28;20093;-79
2024/04/02 02:53:10;;;;;;;12.77;5.28;;;;;;;11.02;100.00;99371.75;5056757;28;20060;-78
2024/04/02 02:55:35;;;;;;;21.52;5.97;;;;;;;11.38;96.36;99361.72;5052714;28;20448;-78
2024/04/02 02:58:01;;;;;;;17.02;6.22;;;;;;;11.56;94.38;99356.13;5053472;28;20017;-79
2024/04/02 03:00:27;;;;;;;24.48;5.85;;;;;;;11.44;94.75;99358.06;5052935;28;20035;-78
2024/04/02 03:02:52;;;;;;;14.57;5.50;;;;;;;11.23;96.79;99355.06;5055268;28;20024;-79
2024/04/02 03:05:17;;;;;;;16.02;6.03;;;;;;;11.82;91.33;99369.91;5056969;28;20063;-78
2024/04/02 03:07:43;;;;;;;19.55;5.30;;;;;;;11.27;98.45;99371.41;5053001;28;20017;-78
2024/04/02 03:10:08;;;;;;;20.73;5.45;;;;;;;11.42;96.06;99355.66;5052795;28;20112;-78
2024/04/02 03:12:34;;;;;;;14.43;5.88;;;;;;;11.77;91.13;99343.09;5051702;28;20032;-79
2024/04/02 03:14:59;;;;;;;12.43;5.38;;;;;;;11.80;90.70;99355.97;5051478;28;20564;-78
2024/04/02 03:17:24;;;;;;;20.60;6.43;;;;;;;11.65;91.03;99352.03;5049020;28;20474;-78
2024/04/02 03:19:51;;;;;;;18.52;4.60;;;;;;;11.71;89.51;99338.72;5050165;28;20052;-78
2024/04/02 03:22:17;;;;;;;16.15;4.88;;;;;;;11.57;92.39;99354.28;5049570;28;20029;-78
2024/04/02 03:24:42;;;;;;;12.75;5.15;;;;;;;11.30;92.18;99357.59;5049186;28;20032;-79
2024/04/02 03:27:09;;;;;;;17.70;6.13;;;;;;;11.71;88.81;99373.44;5048870;28;20040;-79
2024/04/02 03:29:35;;;;;;;16.95;5.55;;;;;;;11.42;87.84;99360.16;5048462;28;20469;-79
2024/04/02 03:32:00;;;;;;;17.52;5.30;;;;;;;11.14;91.47;99335.16;5050170;28;20517;-79
2024/04/02 03:34:28;;;;;;;16.08;5.32;;;;;;;11.49;89.75;99368.84;5049119;28;20086;-79
2024/04/02 03:36:54;;;;;;;16.10;5.45;;;;;;;11.13;90.11;99336.19;5042140;28;20116;-80
2024/04/02 03:39:21;;;;;;;15.73;6.78;;;;;;;11.34;90.03;99334.72;5057080;28;20119;-79
2024/04/02 03:41:46;;;;;;;16.88;5.43;;;;;;;11.52;91.44;99356.88;5069617;28;20103;-78
2024/04/02 03:44:12;;;;;;;16.40;5.88;;;;;;;11.48;90.07;99331.69;5055931;28;20112;-79
2024/04/02 03:46:38;;;;;;;20.77;6.65;;;;;;;11.70;89.51;99342.47;5051315;28;20494;-80
2024/04/02 03:49:03;;;;;;;15.70;5.03;;;;;;;11.49;90.23;99354.69;5051031;28;20039;-79
2024/04/02 03:51:29;;;;;;;16.23;5.18;;;;;;;11.35;91.21;99340.84;5051670;28;20441;-80
2024/04/02 03:53:55;;;;;;;22.38;6.63;;;;;;;11.42;92.32;99352.16;5051162;28;20025;-79
2024/04/02 03:56:20;;;;;;;16.05;5.68;;;;;;;11.68;89.66;99320.53;5050942;28;20053;-79
2024/04/02 03:58:46;;;;;;;16.83;5.72;;;;;;;11.54;91.60;99342.22;5050651;28;20068;-79
2024/04/02 04:01:11;;;;;;;19.92;5.63;;;;;;;11.58;89.46;99321.19;5047350;28;20036;-80
2024/04/02 04:03:37;;;;;;;15.32;6.00;;;;;;;11.68;87.50;99312.53;5041457;28;20112;-80
2024/04/02 04:06:04;;;;;;;17.33;5.30;;;;;;;11.95;85.75;99342.88;5054106;28;20456;-79
2024/04/02 04:08:31;;;;;;;16.90;6.35;;;;;;;12.03;85.61;99334.44;5070074;28;20054;-80
2024/04/02 04:10:57;;;;;;;21.90;6.33;;;;;;;12.20;85.14;99328.25;5051013;28;20028;-79
2024/04/02 04:13:23;;;;;;;20.52;6.95;;;;;;;11.61;91.25;99334.88;5050307;28;20397;-79
2024/04/02 04:15:59;;;;;;;20.90;6.18;;;;;;;11.82;89.84;99346.66;5050632;28;20039;-79
2024/04/02 04:18:26;;;;;;;26.23;6.85;;;;;;;12.02;86.12;99362.22;5050399;28;20086;-79
2024/04/02 04:21:02;;;;;;;22.00;6.63;;;;;;;12.08;84.79;99354.28;5066922;28;20490;-79
2024/04/02 04:23:28;;;;;;;19.10;5.18;;;;;;;11.74;87.11;99362.28;5065450;28;20021;-79
2024/04/02 04:26:14;;;;;;;19.10;5.55;;;;;;;12.01;86.81;99355.28;5050453;28;20094;-78
2024/04/02 04:28:39;;;;;;;17.60;6.63;;;;;;;12.24;85.00;99345.41;5030560;28;20577;-78
2024/04/02 04:31:05;;;;;;;18.92;5.65;;;;;;;12.19;84.82;99331.97;5049252;28;20045;-78
2024/04/02 04:33:30;;;;;;;22.67;5.63;;;;;;;12.12;85.35;99329.47;5050219;28;20033;-78
2024/04/02 04:35:56;;;;;;;15.73;5.18;;;;;;;12.29;84.85;99324.09;5050578;28;20475;-78
2024/04/02 04:38:25;;;;;;;19.35;5.50;;;;;;;12.49;84.53;99328.88;5050120;28;20037;-78
2024/04/02 04:40:50;;;;;;;22.65;6.00;;;;;;;12.09;86.36;99332.63;5065809;28;20086;-78
2024/04/02 04:43:17;;;;;;;17.17;6.03;;;;;;;12.29;84.84;99285.84;5067195;28;20032;-78
2024/04/02 04:46:01;;;;;;;27.92;5.60;;;;;;;12.57;82.02;99331.13;5049726;28;20025;-79
2024/04/02 04:48:26;;;;;;;19.83;4.85;;;;;;;12.88;80.54;99330.66;5049536;28;20406;-78
2024/04/02 04:50:59;;;;;;;20.13;7.57;;;;;;;12.97;78.75;99339.81;5048630;28;20033;-79
2024/04/02 04:53:25;;;;;;;18.23;5.50;;;;;;;12.64;80.23;99341.63;5049360;28;20651;-78
2024/04/02 04:55:50;;;;;;;19.98;6.22;;;;;;;12.96;80.55;99338.22;5050183;28;20536;-78
2024/04/02 04:58:16;;;;;;;21.17;5.00;;;;;;;12.89;78.78;99332.25;5049910;28;20112;-80
2024/04/02 05:00:43;;;;;;;24.65;6.65;;;;;;;12.86;81.97;99329.03;5048820;28;20029;-78
2024/04/02 05:03:08;;;;;;;19.05;6.13;;;;;;;13.25;78.59;99347.59;5049475;28;20036;-78
2024/04/02 05:05:34;;;;;;;29.50;6.30;;;;;;;12.91;83.35;99340.84;5049816;28;20029;-78
2024/04/02 05:08:21;;;;;;;18.67;6.43;;;;;;;12.64;86.51;99333.59;5049454;28;20051;-78
2024/04/02 05:10:48;;;;;;;20.80;5.13;;;;;;;12.56;84.16;99318.78;5049616;28;20024;-78
2024/04/02 05:13:15;;;;;;;15.15;5.40;;;;;;;12.76;84.34;99323.56;5048551;28;20029;-78
2024/04/02 05:15:40;;;;;;;19.27;4.15;;;;;;;13.07;81.81;99324.66;5051040;28;20033;-78
2024/04/02 05:18:09;;;;;;;14.95;4.38;;;;;;;13.54;80.54;99333.94;5047607;28;20525;-79
2024/04/02 05:20:35;;;;;;;16.40;3.85;;;;;;;13.74;75.88;99316.41;5045905;28;20122;-78
2024/04/02 05:23:01;;;;;;;16.65;3.78;;;;;;;14.21;74.16;99343.22;5049111;28;20071;-78
2024/04/02 05:25:26;;;;;;;20.45;4.63;;;;;;;14.11;76.06;99334.31;5048621;28;20041;-78
2024/04/02 05:27:52;;;;;;;16.70;3.70;;;;;;;14.51;74.95;99338.28;5048377;28;20516;-79
2024/04/02 05:30:18;;;;;;;13.48;3.70;;;;;;;14.53;74.46;99336.13;5048881;28;20049;-79
2024/04/02 05:32:43;;;;;;;14.48;3.83;;;;;;;14.57;72.88;99331.88;5049774;28;20504;-78
2024/04/02 05:35:09;;;;;;;12.95;4.00;;;;;;;14.55;72.15;99329.44;5048770;28;20219;-79
2024/04/02 05:37:37;;;;;;;15.30;3.10;;;;;;;14.64;71.32;99308.28;5048464;28;20023;-78
2024/04/02 05:40:07;;;;;;;16.58;3.88;;;;;;;14.70;72.19;99333.25;5048394;28;20116;-79
2024/04/02 05:42:33;;;;;;;16.85;4.13;;;;;;;14.89;72.76;99325.53;5048307;28;20163;-79
2024/04/02 05:45:00;;;;;;;16.95;4.18;;;;;;;15.06;71.63;99320.72;5048742;28;20520;-78
2024/04/02 05:47:26;;;;;;;21.77;4.15;;;;;;;15.04;72.47;99339.00;5048078;28;20025;-78
2024/04/02 05:49:51;;;;;;;15.95;4.18;;;;;;;15.31;70.88;99340.63;5048582;28;20031;-79
2024/04/02 05:52:17;;;;;;;13.90;3.35;;;;;;;15.36;69.28;99346.00;5048970;28;20510;-81
2024/04/02 05:54:42;;;;;;;13.35;3.20;;;;;;;15.44;70.49;99343.56;5048833;28;20067;-78
2024/04/02 05:57:08;;;;;;;13.73;3.08;;;;;;;15.53;67.72;99316.16;5048991;28;20108;-79
2024/04/02 05:59:34;;;;;;;17.48;3.58;;;;;;;15.61;68.68;99335.25;5048272;28;20393;-78
2024/04/02 06:01:59;;;;;;;14.80;3.15;;;;;;;15.70;67.30;99318.59;5048014;28;20028;-78
2024/04/02 06:04:25;;;;;;;14.82;3.75;;;;;;;15.70;66.87;99292.50;5047272;28;20025;-78
2024/04/02 06:06:50;;;;;;;15.65;3.55;;;;;;;15.80;66.78;99305.97;5047873;28;20021;-78
2024/04/02 06:09:16;;;;;;;19.58;3.50;;;;;;;15.98;66.36;99307.28;5048230;28;20510;-79
2024/04/02 06:11:41;;;;;;;18.27;4.75;;;;;;;16.23;64.74;99335.16;5057622;28;20025;-79
2024/04/02 06:14:07;;;;;;;18.27;3.42;;;;;;;16.30;66.58;99343.75;5068280;28;20032;-79
2024/04/02 06:16:32;;;;;;;16.08;3.38;;;;;;;16.46;66.31;99342.59;5050018;28;20461;-78
2024/04/02 06:18:59;;;;;;;22.90;5.00;;;;;;;16.47;65.40;99306.56;5048450;28;20033;-76
2024/04/02 06:21:24;;;;;;;18.52;3.50;;;;;;;16.65;65.58;99333.91;5047248;28;20406;-79
2024/04/02 06:23:49;;;;;;;16.95;4.05;;;;;;;16.98;64.34;99332.44;5048521;28;20044;-80
2024/04/02 06:26:16;;;;;;;19.17;5.00;;;;;;;17.17;66.34;99324.47;5048058;28;20071;-80
2024/04/02 06:28:43;;;;;;;18.67;4.95;;;;;;;17.18;67.85;99320.72;5048170;28;20106;-78
2024/04/02 06:31:08;;;;;;;21.95;4.40;;;;;;;17.27;67.06;99335.19;5047991;28;20049;-79
2024/04/02 06:33:34;;;;;;;22.48;4.63;;;;;;;17.13;66.41;99304.56;5048356;28;20025;-80
2024/04/02 06:35:59;;;;;;;15.43;3.45;;;;;;;17.51;62.57;99321.00;5048112;28;20021;-80
2024/04/02 06:38:24;;;;;;;27.35;4.40;;;;;;;17.69;63.97;99324.84;5047288;28;20104;-80
2024/04/02 06:40:50;;;;;;;18.58;3.75;;;;;;;17.74;64.14;99321.34;5047874;28;20029;-79
2024/04/02 06:43:15;;;;;;;18.00;3.75;;;;;;;17.79;60.94;99286.22;5046698;28;20029;-79
2024/04/02 06:45:41;;;;;;;17.10;3.42;;;;;;;17.79;62.10;99308.56;5047947;28;20036;-80
2024/04/02 06:48:07;;;;;;;18.45;4.78;;;;;;;18.23;59.95;99334.59;5047710;28;20025;-80
2024/04/02 06:50:33;;;;;;;19.52;3.67;;;;;;;18.43;58.61;99321.97;5047445;28;20036;-80
2024/04/02 06:52:58;;;;;;;20.90;4.13;;;;;;;18.42;60.50;99315.72;5049695;28;20028;-80
2024/04/02 06:55:24;;;;;;;15.23;3.40;;;;;;;18.73;58.76;99336.94;5046392;28;20044;-81
2024/04/02 06:57:49;;;;;;;17.85;3.78;;;;;;;19.00;57.11;99354.44;5047171;28;20474;-81
2024/04/02 07:00:16;;;;;;;20.60;4.50;;;;;;;19.14;56.97;99357.22;5047767;28;20116;-82
2024/04/02 07:02:42;;;;;;;18.33;3.47;;;;;;;18.62;60.49;99313.88;5046036;28;20524;-79
2024/04/02 07:05:07;;;;;;;17.13;3.92;;;;;;;18.96;61.58;99319.13;5045960;28;20039;-81
2024/04/02 07:07:33;;;;;;;15.20;3.28;;;;;;;19.20;59.82;99334.41;5047749;28;20032;-81
2024/04/02 07:09:59;;;;;;;16.48;3.58;;;;;;;19.43;59.70;99324.59;5046023;28;20033;-80
2024/04/02 07:12:24;;;;;;;16.95;3.63;;;;;;;19.66;56.55;99326.38;5047287;28;20474;-81
2024/04/02 07:14:50;;;;;;;15.48;3.70;;;;;;;20.32;56.28;99358.75;5046808;28;20036;-80
2024/04/02 07:17:15;;;;;;;23.48;4.20;;;;;;;20.16;52.54;99338.50;5046456;28;20033;-79
2024/04/02 07:19:41;;;;;;;23.88;4.13;;;;;;;20.53;52.37;99358.34;5047111;28;20112;-80
2024/04/02 07:22:06;;;;;;;20.88;4.10;;;;;;;20.98;51.32;99380.19;5049104;28;20052;-79
2024/04/02 07:24:33;;;;;;;17.27;4.13;;;;;;;21.34;50.74;99365.81;5047583;28;20513;-80
2024/04/02 07:26:58;;;;;;;25.25;4.53;;;;;;;21.40;49.21;99351.03;5046650;28;20108;-79
2024/04/02 07:29:23;;;;;;;17.38;3.35;;;;;;;21.61;49.76;99349.44;5046695;28;20550;-81
2024/04/02 07:31:49;;;;;;;20.38;3.70;;;;;;;21.72;48.52;99338.31;5046903;28;20770;-79
2024/04/02 07:34:14;;;;;;;26.90;7.05;;;;;;;21.94;47.11;99332.84;5047015;28;20090;-81
2024/04/02 07:36:39;;;;;;;43.90;16.23;;;;;;;22.44;45.68;99370.63;5047211;28;20025;-81
2024/04/02 07:39:05;;;;;;;18.92;4.15;;;;;;;22.66;43.64;99379.81;5047075;28;20040;-79
2024/04/02 07:41:30;;;;;;;22.10;3.75;;;;;;;22.44;43.85;99338.00;5047153;28;20029;-81
2024/04/02 07:43:56;;;;;;;18.33;4.00;;;;;;;22.48;43.40;99359.13;5047108;28;20083;-80
2024/04/02 07:46:21;;;;;;;19.40;4.05;;;;;;;22.53;43.44;99361.69;5046892;28;20414;-80
2024/04/02 07:48:47;;;;;;;16.83;3.38;;;;;;;22.53;43.36;99316.28;5047060;28;20029;-80
2024/04/02 07:51:12;;;;;;;21.80;4.28;;;;;;;22.80;44.34;99347.84;5047158;28;20113;-80
2024/04/02 07:53:37;;;;;;;53.25;17.92;;;;;;;23.26;42.62;99342.94;5047159;28;20110;-81
2024/04/02 07:56:03;;;;;;;35.47;10.48;;;;;;;23.41;42.48;99347.06;5048130;28;20496;-80
2024/04/02 07:58:29;;;;;;;24.83;5.18;;;;;;;23.30;41.19;99338.44;5047855;28;20057;-80
2024/04/02 08:00:54;;;;;;;21.00;4.45;;;;;;;23.78;40.57;99358.41;5046884;28;20033;-81
2024/04/02 08:03:20;;;;;;;17.90;4.45;;;;;;;23.61;40.79;99365.44;5046634;28;20025;-82
2024/04/02 08:05:45;;;;;;;20.83;4.78;;;;;;;23.52;39.21;99345.63;5046567;28;20497;-80
2024/04/02 08:08:11;;;;;;;18.08;4.10;;;;;;;23.83;39.86;99337.25;5047196;28;20029;-80
2024/04/02 08:10:36;;;;;;;27.08;4.00;;;;;;;23.96;40.67;99327.25;5046929;28;20421;-81
2024/04/02 08:13:02;;;;;;;22.77;4.82;;;;;;;23.84;38.34;99343.50;5046452;28;20033;-81
2024/04/02 08:15:27;;;;;;;26.23;5.32;;;;;;;24.31;39.42;99350.84;5046685;28;20463;-80
2024/04/02 08:17:53;;;;;;;23.17;4.05;;;;;;;24.09;38.17;99311.03;5049245;28;20033;-81
2024/04/02 08:20:18;;;;;;;21.23;4.05;;;;;;;24.14;40.58;99319.03;5046558;28;20037;-82
2024/04/02 08:22:44;;;;;;;22.27;4.47;;;;;;;24.15;38.62;99336.97;5046606;28;20033;-80
2024/04/02 08:25:10;;;;;;;21.27;5.53;;;;;;;24.17;39.24;99296.56;5030592;28;20033;-81
2024/04/02 08:27:36;;;;;;;18.08;3.92;;;;;;;24.57;39.19;99342.56;5034565;28;20087;-79
2024/04/02 08:30:05;;;;;;;22.38;4.80;;;;;;;25.06;38.61;99330.00;5045540;28;20041;-81
2024/04/02 08:32:30;;;;;;;28.40;4.82;;;;;;;25.04;37.07;99324.09;5040297;28;20766;-81
2024/04/02 08:34:55;;;;;;;22.15;4.57;;;;;;;24.86;39.73;99326.16;5044196;28;20065;-82
2024/04/02 08:37:21;;;;;;;25.80;6.00;;;;;;;25.09;38.47;99323.09;5038595;28;20028;-82
2024/04/02 08:39:46;;;;;;;20.13;4.45;;;;;;;25.51;37.45;99330.44;5047629;28;20478;-79
2024/04/02 08:42:13;;;;;;;23.65;5.55;;;;;;;25.48;36.05;99321.00;5038271;28;20044;-80
2024/04/02 08:44:41;;;;;;;25.52;4.55;;;;;;;25.33;35.71;99306.03;5043308;28;20041;-81
2024/04/02 08:47:08;;;;;;;23.73;4.80;;;;;;;25.71;35.89;99296.03;5040719;28;20525;-81
2024/04/02 08:49:33;;;;;;;31.60;5.10;;;;;;;26.22;35.88;99302.78;5040893;28;20045;-80
2024/04/02 08:52:00;;;;;;;25.45;8.27;;;;;;;25.98;35.09;99300.84;5048648;28;20452;-82
2024/04/02 08:54:27;;;;;;;18.35;4.45;;;;;;;26.44;35.73;99317.16;5051103;28;20033;-81
2024/04/02 08:56:53;;;;;;;;;;;;;;;26.53;33.53;99311.53;5046265;28;20117;-81
2024/04/02 08:59:20;;;;;;;29.67;4.85;;;;;;;26.53;33.63;99297.88;5040544;28;19971;-79
2024/04/02 09:01:47;;;;;;;22.80;4.00;;;;;;;26.06;32.85;99275.34;5049888;28;20037;-80
2024/04/02 09:04:13;;;;;;;24.58;4.57;;;;;;;26.43;33.45;99313.59;5049692;28;20041;-80
2024/04/02 09:06:39;;;;;;;27.38;5.60;;;;;;;26.40;33.34;99308.03;5049952;28;20486;-81
2024/04/02 09:09:05;;;;;;;29.17;4.68;;;;;;;26.42;33.39;99279.22;5049486;28;20036;-81
2024/04/02 09:11:30;;;;;;;25.80;4.32;;;;;;;26.86;33.20;99284.81;5049461;28;20033;-81
2024/04/02 09:13:59;;;;;;;31.65;3.95;;;;;;;27.37;32.55;99305.41;5048963;28;20033;-81
2024/04/02 09:16:29;;;;;;;28.73;4.80;;;;;;;27.33;32.58;99307.25;5048650;28;20033;-81
2024/04/02 09:18:54;;;;;;;23.02;4.30;;;;;;;27.78;31.58;99308.81;5047671;28;20025;-81
2024/04/02 09:21:20;;;;;;;27.88;4.13;;;;;;;28.18;30.74;99294.16;5046306;28;20055;-81
2024/04/02 09:23:45;;;;;;;19.98;4.30;;;;;;;28.33;29.14;99301.53;5048578;28;20033;-81
2024/04/02 09:26:10;;;;;;;19.17;4.55;;;;;;;28.73;28.40;99306.00;5053390;28;20078;-80
2024/04/02 09:28:39;;;;;;;24.95;4.18;;;;;;;28.78;27.52;99308.44;5046453;28;20112;-81
2024/04/02 09:31:04;;;;;;;23.10;4.13;;;;;;;28.75;28.60;99311.91;5048454;28;20722;-80
2024/04/02 09:33:30;;;;;;;30.25;4.40;;;;;;;29.29;28.01;99303.97;5046754;28;20028;-81
2024/04/02 09:36:05;;;;;;;31.80;6.35;;;;;;;28.91;27.62;99302.81;5045312;28;20025;-80
2024/04/02 09:38:35;;;;;;;25.05;4.57;;;;;;;28.45;27.93;99290.47;5047026;28;20029;-80
2024/04/02 09:41:02;;;;;;;21.55;4.05;;;;;;;28.82;28.65;99290.09;5046007;28;20029;-80
2024/04/02 09:43:30;;;;;;;25.60;4.65;;;;;;;28.92;27.34;99271.47;5044379;28;20025;-82
2024/04/02 09:45:58;;;;;;;23.40;4.30;;;;;;;29.46;27.63;99281.53;5043036;28;20037;-81
2024/04/02 09:48:27;;;;;;;29.67;4.72;;;;;;;30.10;26.17;99289.28;5045904;28;20021;-82
2024/04/02 09:50:52;;;;;;;25.50;4.68;;;;;;;29.93;25.25;99283.16;5047565;28;20086;-81
2024/04/02 09:53:20;;;;;;;26.00;5.22;;;;;;;29.85;25.17;99281.44;5046393;28;20025;-81
2024/04/02 09:55:48;;;;;;;31.75;6.22;;;;;;;29.98;22.83;99257.31;5042675;28;20031;-80
2024/04/02 09:58:14;;;;;;;26.13;4.95;;;;;;;30.28;22.47;99254.63;5048119;28;20094;-81
2024/04/02 10:00:46;;;;;;;31.45;6.13;;;;;;;30.74;22.13;99270.97;5049265;28;20383;-82
2024/04/02 10:03:12;;;;;;;29.92;4.78;;;;;;;30.30;20.45;99273.50;5041081;28;20494;-79
2024/04/02 10:05:38;;;;;;;33.97;5.25;;;;;;;30.27;21.75;99247.53;5042339;28;20029;-82
2024/04/02 10:08:07;;;;;;;25.30;4.10;;;;;;;30.27;22.13;99233.78;5048467;28;20033;-81
2024/04/02 10:10:37;;;;;;;24.88;5.05;;;;;;;30.52;23.53;99247.09;5048378;28;20056;-81
2024/04/02 10:13:06;;;;;;;28.85;5.30;;;;;;;30.30;22.75;99246.81;5047046;28;20036;-82
2024/04/02 10:15:32;;;;;;;27.70;4.60;;;;;;;30.29;23.89;99228.69;5047743;28;20025;-80
2024/04/02 10:18:00;;;;;;;31.40;5.65;;;;;;;30.32;24.69;99236.25;5048444;28;20029;-81
2024/04/02 10:20:32;;;;;;;;;;;;;;;30.60;22.11;99262.53;5048849;28;20398;-80
2024/04/02 10:22:59;;;;;;;22.02;5.40;;;;;;;30.93;21.29;99270.03;5047686;28;19963;-81
2024/04/02 10:25:25;;;;;;;33.00;4.77;;;;;;;31.14;20.52;99243.91;5047082;28;20052;-81
2024/04/02 10:27:57;;;;;;;25.42;5.07;;;;;;;31.11;21.00;99261.97;5047963;28;20413;-81
2024/04/02 10:30:27;;;;;;;24.00;4.43;;;;;;;31.17;19.96;99251.41;5047833;28;20045;-79
2024/04/02 10:32:54;;;;;;;24.90;4.93;;;;;;;30.37;19.38;99240.63;5048192;28;20489;-80
2024/04/02 10:35:22;;;;;;;29.65;6.25;;;;;;;30.73;19.71;99236.38;5047694;28;20482;-81
2024/04/02 10:37:49;;;;;;;22.33;4.28;;;;;;;31.26;20.17;99231.81;5047831;28;20036;-81
2024/04/02 10:40:15;;;;;;;;;;;;;;;31.75;22.50;99244.50;5037814;28;20037;-81
2024/04/02 10:42:42;;;;;;;31.13;5.55;;;;;;;31.57;20.33;99239.63;5048007;28;19978;-81
2024/04/02 10:45:07;;;;;;;29.10;5.03;;;;;;;31.98;20.39;99242.31;5048630;28;20029;-81
2024/04/02 10:47:34;;;;;;;22.05;4.15;;;;;;;32.13;19.95;99225.88;5047637;28;20033;-80
2024/04/02 10:50:00;;;;;;;22.88;4.28;;;;;;;31.73;20.61;99219.28;5047750;28;20112;-80
2024/04/02 10:52:25;;;;;;;22.13;4.43;;;;;;;31.16;22.38;99225.84;5047566;28;20116;-81
2024/04/02 10:54:51;;;;;;;21.50;4.53;;;;;;;31.46;21.48;99200.16;5047575;28;20044;-82
2024/04/02 10:57:16;;;;;;;20.95;3.63;;;;;;;31.70;22.67;99211.78;5047361;28;20422;-81
2024/04/02 10:59:45;;;;;;;26.92;4.68;;;;;;;31.89;21.11;99222.53;5048307;28;20047;-82
2024/04/02 11:02:19;;;;;;;27.55;4.20;;;;;;;31.99;21.06;99188.75;5047730;28;20036;-81
2024/04/02 11:04:46;;;;;;;23.98;3.95;;;;;;;32.21;20.20;99206.22;5044346;28;20025;-81
2024/04/02 11:07:11;;;;;;;;;;;;;;;32.71;21.20;99205.66;5047296;28;20063;-80
2024/04/02 11:09:40;;;;;;;25.08;4.95;;;;;;;32.81;20.76;99204.13;5046954;28;19952;-83
2024/04/02 11:12:09;;;;;;;27.10;4.25;;;;;;;32.68;21.23;99203.69;5046971;28;20043;-81
2024/04/02 11:14:38;;;;;;;29.65;5.75;;;;;;;33.01;19.61;99201.81;5047121;28;21486;-81
2024/04/02 11:17:05;;;;;;;23.42;4.20;;;;;;;32.82;20.05;99184.41;5046881;28;20082;-81
2024/04/02 11:19:31;;;;;;;21.88;4.60;;;;;;;32.40;20.60;99172.00;5047397;28;20068;-83
2024/04/02 11:25:03;;;;;;;19.95;4.13;;;;;;;32.05;20.09;99174.63;5046198;28;20056;-80